Time;durP1;ratioP1;P1;durP2;ratioP2;P2;SDS_P1;SDS_P2;PMS_P1;PMS_P2;Temp;Humidity;BMP_temperature;BMP_pressure;BME280_temperature;BME280_humidity;BME280_pressure;Samples;Min_cycle;Max_cycle;Signal;HPM_P1;HPM_P2
2022/03/10 00:00:13;;;;;;;62.92;23.15;;;;;;;1.80;100.00;102254.88;5225103;28;20025;-77
2022/03/10 00:02:44;;;;;;;63.67;22.50;;;;;;;1.73;100.00;102259.63;5224982;28;20056;-77
2022/03/10 00:05:16;;;;;;;62.45;21.73;;;;;;;1.65;100.00;102256.47;5224249;28;20519;-77
2022/03/10 00:07:47;;;;;;;59.40;22.02;;;;;;;1.65;100.00;102255.63;5223371;28;20565;-77
2022/03/10 00:10:17;;;;;;;66.85;24.52;;;;;;;1.63;100.00;102257.50;5223280;28;20048;-77
2022/03/10 00:12:49;;;;;;;65.65;24.05;;;;;;;1.59;100.00;102264.72;5224871;28;20032;-77
2022/03/10 00:15:23;;;;;;;67.70;23.55;;;;;;;1.56;100.00;102256.94;5224051;28;20032;-78
2022/03/10 00:17:54;;;;;;;65.22;25.35;;;;;;;1.51;100.00;102261.59;5224645;28;20055;-77
2022/03/10 00:20:24;;;;;;;60.47;22.17;;;;;;;1.45;100.00;102256.59;5224120;28;20021;-77
2022/03/10 00:22:56;;;;;;;62.85;23.33;;;;;;;1.40;100.00;102259.44;5224578;28;20056;-77
2022/03/10 00:25:27;;;;;;;61.58;21.73;;;;;;;1.37;100.00;102256.09;5224180;28;20032;-77
2022/03/10 00:27:57;;;;;;;63.00;23.48;;;;;;;1.34;100.00;102254.44;5223532;28;20489;-77
2022/03/10 00:30:28;;;;;;;57.85;22.27;;;;;;;1.38;100.00;102260.47;5224120;28;20029;-77
2022/03/10 00:32:58;;;;;;;62.95;23.30;;;;;;;1.42;100.00;102256.75;5212781;28;20082;-77
2022/03/10 00:35:29;;;;;;;68.80;24.63;;;;;;;1.43;100.00;102254.03;5217345;28;20025;-77
2022/03/10 00:37:59;;;;;;;63.47;23.40;;;;;;;1.38;100.00;102258.66;5221943;28;20484;-77
2022/03/10 00:40:30;;;;;;;64.75;24.02;;;;;;;1.29;100.00;102262.59;5224288;28;20418;-77
2022/03/10 00:43:00;;;;;;;64.43;24.25;;;;;;;1.17;100.00;102255.25;5224313;28;20029;-77
2022/03/10 00:45:31;;;;;;;65.40;24.38;;;;;;;1.07;100.00;102255.75;5224046;28;20515;-78
2022/03/10 00:48:01;;;;;;;60.50;23.63;;;;;;;1.01;100.00;102264.81;5224538;28;20024;-77
2022/03/10 00:50:32;;;;;;;62.20;24.10;;;;;;;0.95;100.00;102258.00;5223017;28;20071;-77
2022/03/10 00:53:02;;;;;;;61.03;22.45;;;;;;;0.91;100.00;102264.38;5224388;28;20021;-77
2022/03/10 00:55:33;;;;;;;71.75;23.55;;;;;;;0.90;100.00;102269.72;5223505;28;20536;-77
2022/03/10 00:58:03;;;;;;;62.50;24.35;;;;;;;0.86;100.00;102273.44;5225152;28;20033;-77
2022/03/10 01:00:34;;;;;;;64.90;22.92;;;;;;;0.80;100.00;102263.13;5228106;28;20108;-77
2022/03/10 01:03:05;;;;;;;69.22;24.70;;;;;;;0.75;100.00;102266.84;5228268;28;20021;-77
2022/03/10 01:05:36;;;;;;;65.00;23.35;;;;;;;0.70;100.00;102262.69;5227790;28;20025;-77
2022/03/10 01:08:06;;;;;;;67.47;23.75;;;;;;;0.66;100.00;102266.41;5227595;28;20090;-77
2022/03/10 01:10:37;;;;;;;67.95;23.45;;;;;;;0.61;100.00;102249.91;5227956;28;20035;-78
2022/03/10 01:13:37;;;;;;;65.88;24.38;;;;;;;0.60;100.00;102258.72;5227949;28;20472;-77
2022/03/10 01:16:08;;;;;;;64.30;22.38;;;;;;;0.58;100.00;102258.81;5226836;28;20128;-77
2022/03/10 01:18:38;;;;;;;62.83;23.13;;;;;;;0.55;100.00;102252.78;5228067;28;20116;-77
2022/03/10 01:21:09;;;;;;;60.40;22.65;;;;;;;0.52;100.00;102254.66;5227552;28;20033;-77
2022/03/10 01:23:39;;;;;;;65.45;22.50;;;;;;;0.52;100.00;102248.53;5227671;28;20033;-77
2022/03/10 01:26:09;;;;;;;61.40;22.60;;;;;;;0.52;100.00;102245.88;5227205;28;20025;-77
2022/03/10 01:28:40;;;;;;;68.63;22.23;;;;;;;0.50;100.00;102247.72;5227511;28;20107;-77
2022/03/10 01:31:10;;;;;;;64.18;23.52;;;;;;;0.50;100.00;102242.44;5225428;28;20053;-77
2022/03/10 01:33:41;;;;;;;67.25;23.33;;;;;;;0.48;100.00;102241.66;5217134;28;20140;-77
2022/03/10 01:36:11;;;;;;;65.53;25.05;;;;;;;0.48;100.00;102242.50;5217715;28;20029;-77
2022/03/10 01:38:42;;;;;;;60.38;21.85;;;;;;;0.49;100.00;102248.66;5227419;28;20017;-77
2022/03/10 01:41:12;;;;;;;67.22;23.20;;;;;;;0.48;100.00;102239.00;5227178;28;20032;-77
2022/03/10 01:44:00;;;;;;;55.08;22.17;;;;;;;0.47;100.00;102245.22;5227163;28;20075;-77
2022/03/10 01:46:30;;;;;;;65.25;23.73;;;;;;;0.47;100.00;102239.94;5226891;28;20016;-77
2022/03/10 01:49:01;;;;;;;67.22;23.08;;;;;;;0.47;100.00;102237.31;5227287;28;20039;-77
2022/03/10 01:51:34;;;;;;;66.35;23.70;;;;;;;0.43;100.00;102233.94;5226256;28;20036;-77
2022/03/10 01:54:06;;;;;;;54.45;21.25;;;;;;;0.38;100.00;102238.56;5226800;28;20503;-82
2022/03/10 01:56:38;;;;;;;59.40;21.63;;;;;;;0.34;100.00;102234.31;5229596;28;20048;-79
2022/03/10 01:59:09;;;;;;;64.28;24.13;;;;;;;0.32;100.00;102233.53;5225845;28;20068;-77
2022/03/10 02:01:40;;;;;;;64.45;23.45;;;;;;;0.31;100.00;102230.97;5225905;28;20029;-77
2022/03/10 02:04:11;;;;;;;64.40;21.63;;;;;;;0.28;100.00;102223.19;5225547;28;20024;-77
2022/03/10 02:06:42;;;;;;;58.47;22.27;;;;;;;0.24;100.00;102220.66;5226659;28;20036;-77
2022/03/10 02:12:02;;;;;;;65.80;22.92;;;;;;;0.13;100.00;102219.41;5226968;28;20472;-78
2022/03/10 02:17:21;;;;;;;57.03;21.73;;;;;;;0.04;100.00;102223.31;5226889;28;20025;-77
2022/03/10 02:19:54;;;;;;;64.95;24.17;;;;;;;0.03;100.00;102220.75;5225430;28;20514;-77
2022/03/10 02:22:26;;;;;;;67.10;24.30;;;;;;;0.03;100.00;102224.22;5226689;28;20104;-78
2022/03/10 02:24:56;;;;;;;63.50;22.67;;;;;;;0.03;100.00;102218.94;5226800;28;20056;-78
2022/03/10 02:27:27;;;;;;;70.63;23.88;;;;;;;0.03;100.00;102220.75;5226690;28;20056;-78
2022/03/10 02:29:59;;;;;;;61.80;22.35;;;;;;;0.02;100.00;102222.53;5226539;28;20071;-77
2022/03/10 02:32:30;;;;;;;63.03;23.45;;;;;;;0.00;100.00;102227.03;5214939;28;20025;-77
2022/03/10 02:35:00;;;;;;;66.53;22.63;;;;;;;-0.02;100.00;102228.84;5222440;28;20461;-77
2022/03/10 02:37:32;;;;;;;63.35;23.48;;;;;;;-0.02;100.00;102221.78;5220791;28;20031;-78
2022/03/10 02:40:04;;;;;;;74.45;23.17;;;;;;;-0.03;100.00;102225.34;5225792;28;20107;-78
2022/03/10 02:42:35;;;;;;;74.30;23.77;;;;;;;-0.05;100.00;102227.22;5225947;28;20021;-78
2022/03/10 02:45:07;;;;;;;64.43;25.05;;;;;;;-0.05;100.00;102223.69;5225962;28;20059;-77
2022/03/10 02:47:38;;;;;;;63.28;22.25;;;;;;;-0.07;100.00;102217.63;5226972;28;20461;-77
2022/03/10 02:50:09;;;;;;;53.35;21.63;;;;;;;-0.07;100.00;102223.75;5225827;28;20104;-77
2022/03/10 02:52:42;;;;;;;52.95;20.08;;;;;;;-0.08;100.00;102214.13;5226025;28;20032;-77
2022/03/10 02:55:13;;;;;;;58.28;22.40;;;;;;;-0.06;100.00;102216.69;5225781;28;20056;-77
2022/03/10 02:57:44;;;;;;;58.63;21.60;;;;;;;-0.04;100.00;102222.78;5226177;28;20048;-77
2022/03/10 03:00:15;;;;;;;65.03;23.88;;;;;;;-0.02;100.00;102221.78;5225872;28;20032;-77
2022/03/10 03:02:46;;;;;;;66.30;23.63;;;;;;;0.00;100.00;102213.81;5225819;28;20029;-77
2022/03/10 03:05:16;;;;;;;60.03;22.15;;;;;;;-0.01;100.00;102215.56;5225484;28;20492;-77
2022/03/10 03:07:48;;;;;;;58.30;21.40;;;;;;;0.01;100.00;102218.16;5225957;28;20032;-77
2022/03/10 03:10:19;;;;;;;58.70;21.38;;;;;;;0.05;100.00;102214.50;5225504;28;20096;-77
2022/03/10 03:12:51;;;;;;;62.25;22.88;;;;;;;0.05;100.00;102210.97;5225637;28;20179;-77
2022/03/10 03:15:21;;;;;;;60.67;23.23;;;;;;;0.03;100.00;102221.59;5225010;28;20404;-77
2022/03/10 03:17:52;;;;;;;68.03;22.90;;;;;;;0.01;100.00;102219.97;5225734;28;20029;-77
2022/03/10 03:20:22;;;;;;;73.25;25.05;;;;;;;-0.01;100.00;102222.63;5224872;28;20052;-77
2022/03/10 03:22:53;;;;;;;68.63;25.60;;;;;;;-0.01;100.00;102222.63;5225452;28;20036;-77
2022/03/10 03:25:23;;;;;;;71.65;24.15;;;;;;;-0.02;100.00;102213.00;5223863;28;20052;-77
2022/03/10 03:27:54;;;;;;;58.00;23.10;;;;;;;-0.04;100.00;102218.38;5225241;28;20028;-77
2022/03/10 03:30:24;;;;;;;62.80;23.60;;;;;;;-0.03;100.00;102225.34;5225240;28;20035;-77
2022/03/10 03:32:55;;;;;;;68.15;23.88;;;;;;;-0.03;100.00;102229.78;5212563;28;20020;-77
2022/03/10 03:35:25;;;;;;;69.75;24.25;;;;;;;-0.08;100.00;102235.25;5217354;28;20026;-77
2022/03/10 03:37:56;;;;;;;62.75;23.08;;;;;;;-0.12;100.00;102225.72;5222954;28;20440;-77
2022/03/10 03:40:26;;;;;;;70.55;23.83;;;;;;;-0.11;100.00;102226.59;5224907;28;20429;-77
2022/03/10 03:42:56;;;;;;;64.40;23.25;;;;;;;-0.16;100.00;102228.56;5224152;28;20440;-77
2022/03/10 03:45:27;;;;;;;70.53;24.67;;;;;;;-0.19;100.00;102228.69;5224942;28;20035;-77
2022/03/10 03:47:58;;;;;;;67.18;22.58;;;;;;;-0.21;100.00;102226.09;5225504;28;20021;-78
2022/03/10 03:50:28;;;;;;;61.28;22.48;;;;;;;-0.22;100.00;102224.41;5225078;28;20025;-79
2022/03/10 03:52:59;;;;;;;66.03;23.45;;;;;;;-0.22;100.00;102232.31;5225371;28;20037;-78
2022/03/10 03:55:29;;;;;;;64.35;24.77;;;;;;;-0.21;100.00;102241.06;5224696;28;20028;-78
2022/03/10 03:58:00;;;;;;;67.43;23.85;;;;;;;-0.21;100.00;102235.81;5225392;28;20013;-79
2022/03/10 04:00:30;;;;;;;64.65;23.13;;;;;;;-0.20;100.00;102237.50;5224914;28;20036;-78
2022/03/10 04:03:08;;;;;;;67.60;23.98;;;;;;;-0.21;100.00;102238.44;5224984;28;20021;-79
2022/03/10 04:05:39;;;;;;;69.80;25.10;;;;;;;-0.22;100.00;102240.22;5223379;28;20556;-79
2022/03/10 04:08:09;;;;;;;65.63;23.95;;;;;;;-0.23;100.00;102245.56;5224938;28;20033;-79
2022/03/10 04:10:40;;;;;;;66.53;25.00;;;;;;;-0.24;100.00;102247.34;5224484;28;20399;-78
2022/03/10 04:13:10;;;;;;;61.53;23.77;;;;;;;-0.26;100.00;102249.19;5224903;28;20535;-78
2022/03/10 04:15:41;;;;;;;65.50;22.73;;;;;;;-0.25;100.00;102250.91;5224371;28;20087;-79
2022/03/10 04:18:11;;;;;;;63.33;21.52;;;;;;;-0.17;100.00;102253.22;5224793;28;20476;-79
2022/03/10 04:20:43;;;;;;;65.65;23.70;;;;;;;-0.18;100.00;102254.16;5223262;28;20029;-78
2022/03/10 04:23:14;;;;;;;63.88;23.10;;;;;;;-0.23;100.00;102266.66;5225043;28;20024;-78
2022/03/10 04:25:44;;;;;;;66.53;24.33;;;;;;;-0.30;100.00;102272.19;5225312;28;20029;-77
2022/03/10 04:28:15;;;;;;;69.18;23.98;;;;;;;-0.34;100.00;102264.47;5224666;28;20087;-78
2022/03/10 04:30:45;;;;;;;63.97;24.40;;;;;;;-0.36;100.00;102263.66;5224879;28;20396;-78
2022/03/10 04:33:16;;;;;;;67.68;24.17;;;;;;;-0.41;100.00;102261.19;5215184;28;20088;-78
2022/03/10 04:35:48;;;;;;;69.38;23.33;;;;;;;-0.43;100.00;102268.31;5219544;28;20028;-77
2022/03/10 04:38:19;;;;;;;69.43;24.23;;;;;;;-0.45;100.00;102264.91;5227686;28;20025;-78
2022/03/10 04:40:49;;;;;;;71.93;24.02;;;;;;;-0.44;100.00;102266.59;5228311;28;20036;-77
2022/03/10 04:43:20;;;;;;;65.85;23.13;;;;;;;-0.45;100.00;102256.09;5228839;28;20090;-78
2022/03/10 04:45:50;;;;;;;70.00;23.58;;;;;;;-0.46;100.00;102260.53;5226910;28;20556;-77
2022/03/10 04:48:21;;;;;;;69.88;24.42;;;;;;;-0.44;100.00;102260.47;5228652;28;20571;-77
2022/03/10 04:50:51;;;;;;;59.85;23.30;;;;;;;-0.41;100.00;102265.63;5228523;28;20119;-77
2022/03/10 04:53:22;;;;;;;64.03;23.15;;;;;;;-0.41;100.00;102271.75;5228572;28;20028;-78
2022/03/10 04:55:52;;;;;;;63.08;21.88;;;;;;;-0.38;100.00;102266.34;5228186;28;20052;-78
2022/03/10 04:58:23;;;;;;;56.30;22.10;;;;;;;-0.36;100.00;102269.78;5228435;28;20033;-78
2022/03/10 05:00:54;;;;;;;71.68;24.42;;;;;;;-0.34;100.00;102275.00;5228212;28;20113;-78
2022/03/10 05:03:24;;;;;;;63.38;24.50;;;;;;;-0.34;100.00;102272.38;5228408;28;20484;-78
2022/03/10 05:05:55;;;;;;;65.18;21.63;;;;;;;-0.34;100.00;102265.31;5243098;28;20519;-78
2022/03/10 05:08:25;;;;;;;63.25;23.13;;;;;;;-0.36;100.00;102263.66;5228103;28;20052;-79
2022/03/10 05:10:57;;;;;;;61.92;22.45;;;;;;;-0.37;100.00;102270.72;5228298;28;20056;-79
2022/03/10 05:13:28;;;;;;;58.58;21.75;;;;;;;-0.36;100.00;102268.94;5228278;28;20575;-79
2022/03/10 05:15:58;;;;;;;52.90;20.48;;;;;;;-0.37;100.00;102269.84;5227951;28;20103;-79
2022/03/10 05:18:29;;;;;;;61.20;23.95;;;;;;;-0.37;100.00;102277.75;5228088;28;20380;-79
2022/03/10 05:20:59;;;;;;;64.68;23.38;;;;;;;-0.38;100.00;102271.63;5226955;28;20068;-78
2022/03/10 05:23:29;;;;;;;62.80;21.83;;;;;;;-0.37;100.00;102273.34;5228285;28;20433;-78
2022/03/10 05:26:00;;;;;;;63.08;22.42;;;;;;;-0.37;100.00;102273.34;5227520;28;20064;-78
2022/03/10 05:28:30;;;;;;;63.00;23.38;;;;;;;-0.34;100.00;102280.28;5227694;28;20488;-78
2022/03/10 05:31:01;;;;;;;63.45;23.00;;;;;;;-0.33;100.00;102284.63;5228013;28;20025;-79
2022/03/10 05:33:31;;;;;;;68.60;24.15;;;;;;;-0.33;100.00;102277.59;5232395;28;20028;-78
2022/03/10 05:36:02;;;;;;;61.03;23.13;;;;;;;-0.32;100.00;102270.53;5218383;28;20036;-78
2022/03/10 05:38:33;;;;;;;66.75;24.10;;;;;;;-0.33;100.00;102272.31;5227594;28;20036;-79
2022/03/10 05:41:05;;;;;;;70.05;24.38;;;;;;;-0.35;100.00;102274.16;5227360;28;20025;-79
2022/03/10 05:43:35;;;;;;;65.72;22.15;;;;;;;-0.36;100.00;102269.78;5227513;28;20070;-78
2022/03/10 05:46:06;;;;;;;54.35;21.77;;;;;;;-0.37;100.00;102275.13;5225988;28;20028;-78
2022/03/10 05:48:36;;;;;;;65.68;22.83;;;;;;;-0.39;100.00;102274.34;5228498;28;20017;-79
2022/03/10 05:51:07;;;;;;;69.95;23.80;;;;;;;-0.42;100.00;102280.56;5228324;28;20021;-79
2022/03/10 05:53:37;;;;;;;83.78;24.75;;;;;;;-0.42;100.00;102279.72;5226773;28;20083;-78
2022/03/10 05:56:08;;;;;;;58.38;21.90;;;;;;;-0.43;100.00;102272.75;5228680;28;20114;-75
2022/03/10 05:58:38;;;;;;;72.53;24.05;;;;;;;-0.44;100.00;102282.44;5227433;28;20039;-77
2022/03/10 06:01:09;;;;;;;70.85;22.85;;;;;;;-0.44;100.00;102271.88;5227120;28;20049;-77
2022/03/10 06:03:40;;;;;;;66.47;23.27;;;;;;;-0.44;100.00;102265.75;5227290;28;20080;-75
2022/03/10 06:06:12;;;;;;;69.20;22.50;;;;;;;-0.42;100.00;102264.75;5226367;28;20403;-77
2022/03/10 06:08:43;;;;;;;65.13;23.05;;;;;;;-0.38;100.00;102270.78;5226826;28;20067;-77
2022/03/10 06:11:14;;;;;;;72.43;23.63;;;;;;;-0.33;100.00;102263.53;5227026;28;20060;-77
2022/03/10 06:13:44;;;;;;;62.47;21.98;;;;;;;-0.29;100.00;102265.13;5226889;28;20104;-81
2022/03/10 06:16:15;;;;;;;64.32;24.75;;;;;;;-0.28;100.00;102267.72;5227047;28;20031;-80
2022/03/10 06:18:45;;;;;;;67.40;23.27;;;;;;;-0.23;100.00;102271.94;5228306;28;20468;-79
2022/03/10 06:21:16;;;;;;;60.53;22.75;;;;;;;-0.20;100.00;102269.16;5227500;28;20388;-77
2022/03/10 06:23:46;;;;;;;61.15;23.00;;;;;;;-0.18;100.00;102262.91;5226866;28;20135;-77
2022/03/10 06:26:17;;;;;;;66.80;23.65;;;;;;;-0.13;100.00;102268.88;5225686;28;20060;-76
2022/03/10 06:28:47;;;;;;;63.40;23.05;;;;;;;-0.05;100.00;102274.69;5225822;28;20556;-75
2022/03/10 06:31:19;;;;;;;66.95;24.67;;;;;;;0.03;100.00;102279.63;5224918;28;20025;-74
2022/03/10 06:33:49;;;;;;;61.88;22.75;;;;;;;0.14;100.00;102281.81;5217729;28;20021;-75
2022/03/10 06:36:20;;;;;;;58.53;21.75;;;;;;;0.26;100.00;102283.97;5215889;28;20025;-79
2022/03/10 06:38:50;;;;;;;65.18;23.88;;;;;;;0.37;100.00;102287.00;5225744;28;20396;-79
2022/03/10 06:41:21;;;;;;;59.15;22.70;;;;;;;0.54;100.00;102293.34;5227191;28;20415;-79
2022/03/10 06:43:51;;;;;;;62.67;23.77;;;;;;;0.73;100.00;102289.81;5227240;28;20025;-80
2022/03/10 06:46:22;;;;;;;66.45;22.48;;;;;;;0.97;100.00;102300.25;5226542;28;20028;-79
2022/03/10 06:48:52;;;;;;;57.90;21.98;;;;;;;1.24;100.00;102304.25;5227581;28;20052;-79
2022/03/10 06:51:23;;;;;;;61.95;22.23;;;;;;;1.53;100.00;102289.69;5227423;28;20029;-79
2022/03/10 06:53:54;;;;;;;63.75;24.05;;;;;;;1.93;100.00;102290.41;5227086;28;20036;-79
2022/03/10 06:56:25;;;;;;;61.20;23.88;;;;;;;2.46;100.00;102291.28;5226693;28;20029;-80
2022/03/10 06:58:55;;;;;;;59.58;21.33;;;;;;;3.03;100.00;102292.69;5228370;28;20027;-79
2022/03/10 07:01:26;;;;;;;52.60;22.02;;;;;;;3.40;100.00;102284.50;5229120;28;20108;-79
2022/03/10 07:03:57;;;;;;;55.78;24.20;;;;;;;3.75;100.00;102280.72;5213577;28;20097;-80
2022/03/10 07:06:27;;;;;;;52.20;22.63;;;;;;;4.13;100.00;102283.00;5231768;28;20020;-80
2022/03/10 07:08:58;;;;;;;46.80;20.42;;;;;;;4.45;100.00;102289.06;5229838;28;20129;-80
2022/03/10 07:11:28;;;;;;;52.05;23.42;;;;;;;4.61;100.00;102281.88;5229753;28;20055;-80
2022/03/10 07:13:59;;;;;;;51.58;21.92;;;;;;;4.78;100.00;102286.19;5230051;28;20086;-80
2022/03/10 07:16:30;;;;;;;44.45;20.80;;;;;;;5.11;100.00;102293.00;5230725;28;20025;-80
2022/03/10 07:19:00;;;;;;;46.95;21.23;;;;;;;5.64;100.00;102297.59;5232274;28;20041;-80
2022/03/10 07:21:31;;;;;;;51.78;21.75;;;;;;;6.02;100.00;102290.75;5229921;28;20074;-80
2022/03/10 07:24:01;;;;;;;47.33;21.70;;;;;;;6.51;100.00;102301.63;5230078;28;20032;-80
2022/03/10 07:26:32;;;;;;;51.95;21.88;;;;;;;6.86;100.00;102303.69;5229666;28;20036;-80
2022/03/10 07:29:03;;;;;;;46.05;21.20;;;;;;;7.18;100.00;102298.78;5230278;28;20025;-80
2022/03/10 07:31:34;;;;;;;53.92;22.25;;;;;;;7.52;100.00;102303.38;5230559;28;20025;-81
2022/03/10 07:34:04;;;;;;;52.35;22.98;;;;;;;7.85;100.00;102309.06;5230998;28;20035;-78
2022/03/10 07:36:35;;;;;;;48.58;21.85;;;;;;;8.18;100.00;102295.88;5214625;28;20239;-79
2022/03/10 07:39:05;;;;;;;43.67;20.77;;;;;;;8.34;100.00;102298.25;5229425;28;20037;-79
2022/03/10 07:41:36;;;;;;;48.35;22.65;;;;;;;8.53;100.00;102297.69;5225836;28;20025;-79
2022/03/10 07:44:06;;;;;;;49.70;22.13;;;;;;;8.71;100.00;102300.78;5226424;28;20041;-79
2022/03/10 07:46:37;;;;;;;42.25;21.83;;;;;;;8.95;100.00;102301.56;5225010;28;20021;-79
2022/03/10 07:49:08;;;;;;;47.03;22.85;;;;;;;9.23;100.00;102304.72;5216135;28;20084;-79
2022/03/10 07:51:42;;;;;;;51.22;21.98;;;;;;;9.25;100.00;102302.78;5224816;28;20024;-79
2022/03/10 07:54:13;;;;;;;45.20;20.95;;;;;;;9.31;100.00;102307.66;5223139;28;20422;-79
2022/03/10 07:56:44;;;;;;;48.33;24.08;;;;;;;9.43;100.00;102301.31;5224647;28;20159;-79
2022/03/10 07:59:15;;;;;;;47.17;22.38;;;;;;;9.84;100.00;102302.47;5222972;28;20025;-79
2022/03/10 08:01:46;;;;;;;51.33;21.95;;;;;;;9.75;100.00;102303.22;5224717;28;20025;-79
2022/03/10 08:04:17;;;;;;;44.60;21.48;;;;;;;9.88;100.00;102303.91;5223922;28;20063;-79
2022/03/10 08:06:47;;;;;;;42.45;21.77;;;;;;;9.99;100.00;102303.00;5224313;28;20147;-79
2022/03/10 08:09:18;;;;;;;44.40;21.52;;;;;;;10.28;100.00;102306.81;5224356;28;20055;-80
2022/03/10 08:11:48;;;;;;;45.53;22.88;;;;;;;10.30;100.00;102304.88;5241247;28;20033;-84
2022/03/10 08:14:19;;;;;;;47.97;22.05;;;;;;;10.58;100.00;102310.59;5229172;28;20024;-78
2022/03/10 08:16:50;;;;;;;46.30;21.55;;;;;;;10.81;100.00;102312.16;5222493;28;20206;-78
2022/03/10 08:19:21;;;;;;;46.58;23.20;;;;;;;11.01;100.00;102313.13;5222963;28;20048;-78
2022/03/10 08:21:52;;;;;;;44.97;21.10;;;;;;;11.26;100.00;102317.19;5223808;28;20060;-78
2022/03/10 08:24:22;;;;;;;44.70;21.80;;;;;;;10.95;100.00;102308.28;5223506;28;20061;-78
2022/03/10 08:26:53;;;;;;;44.75;21.95;;;;;;;10.99;100.00;102308.84;5223737;28;20013;-78
2022/03/10 08:29:23;;;;;;;43.65;20.90;;;;;;;11.23;100.00;102308.56;5223477;28;20060;-78
2022/03/10 08:31:54;;;;;;;45.67;21.05;;;;;;;11.25;100.00;102307.44;5223467;28;20067;-77
2022/03/10 08:34:24;;;;;;;42.97;20.30;;;;;;;11.58;99.32;102302.72;5225461;28;20044;-78
2022/03/10 08:36:55;;;;;;;48.00;22.10;;;;;;;11.70;100.00;102304.34;5212202;28;20029;-78
2022/03/10 08:39:26;;;;;;;41.80;21.33;;;;;;;11.79;100.00;102300.78;5223433;28;20040;-78
2022/03/10 08:41:56;;;;;;;45.30;21.92;;;;;;;12.32;100.00;102299.59;5223468;28;20036;-78
2022/03/10 08:44:27;;;;;;;43.13;20.25;;;;;;;12.27;98.55;102307.25;5222802;28;20116;-78
2022/03/10 08:46:57;;;;;;;46.10;22.67;;;;;;;12.29;96.41;102292.66;5223267;28;20017;-78
2022/03/10 08:49:28;;;;;;;42.03;22.05;;;;;;;12.46;89.04;102293.78;5222763;28;20049;-78
2022/03/10 08:51:58;;;;;;;44.05;22.50;;;;;;;12.58;86.85;102300.69;5223387;28;20029;-77
2022/03/10 08:54:29;;;;;;;43.88;22.08;;;;;;;12.85;88.33;102299.06;5230013;28;20029;-80
2022/03/10 08:57:00;;;;;;;41.05;21.75;;;;;;;12.86;83.82;102296.25;5237942;23;20728;-74
2022/03/10 08:59:30;;;;;;;44.05;21.55;;;;;;;13.07;86.46;102303.28;5168029;28;20030;-74
2022/03/10 09:02:01;;;;;;;40.00;20.50;;;;;;;13.13;84.02;102295.44;5180425;28;20060;-75
2022/03/10 09:04:31;;;;;;;40.10;19.92;;;;;;;13.44;83.31;102292.50;5180145;28;20022;-74
2022/03/10 09:07:02;;;;;;;43.40;21.08;;;;;;;13.47;78.69;102284.13;5180166;28;20053;-74
2022/03/10 09:09:32;;;;;;;36.90;19.48;;;;;;;13.94;76.03;102279.41;5179748;28;20026;-74
2022/03/10 09:12:04;;;;;;;45.10;21.33;;;;;;;13.63;77.98;102270.81;5180339;28;20058;-75
2022/03/10 09:14:34;;;;;;;44.72;21.13;;;;;;;13.89;75.02;102278.16;5191764;28;20064;-74
2022/03/10 09:17:05;;;;;;;40.47;20.13;;;;;;;13.70;76.83;102274.63;5188000;28;20022;-75
2022/03/10 09:19:35;;;;;;;35.47;19.98;;;;;;;14.04;78.71;102278.50;5184990;28;20232;-75
2022/03/10 09:22:06;;;;;;;37.38;20.75;;;;;;;13.60;74.36;102268.41;5184050;28;20907;-76
2022/03/10 09:24:36;;;;;;;39.38;20.65;;;;;;;13.58;79.06;102270.44;5165628;28;20022;-75
2022/03/10 09:27:09;;;;;;;43.10;20.20;;;;;;;13.83;83.13;102274.25;5173520;28;20029;-75
2022/03/10 09:29:39;;;;;;;37.67;19.67;;;;;;;14.15;77.52;102262.06;5184995;28;20636;-75
2022/03/10 09:32:11;;;;;;;34.80;19.23;;;;;;;14.16;74.38;102252.97;5166876;28;20112;-75
2022/03/10 09:34:41;;;;;;;38.50;19.38;;;;;;;14.41;76.91;102259.44;5193521;28;20026;-74
2022/03/10 09:37:12;;;;;;;42.97;19.58;;;;;;;14.34;73.78;102256.47;5184389;28;20051;-75
2022/03/10 09:39:43;;;;;;;38.10;20.35;;;;;;;14.66;72.62;102257.75;5183868;28;20402;-74
2022/03/10 09:42:16;;;;;;;34.05;18.83;;;;;;;14.98;68.52;102246.31;5184091;28;20163;-75
2022/03/10 09:44:48;;;;;;;36.22;19.33;;;;;;;14.81;71.92;102250.78;5183569;28;20449;-75
2022/03/10 09:47:19;;;;;;;37.70;19.40;;;;;;;15.13;72.65;102247.38;5183910;28;20068;-75
2022/03/10 09:49:49;;;;;;;38.00;19.23;;;;;;;15.09;69.20;102243.31;5166557;28;20022;-75
2022/03/10 09:52:21;;;;;;;43.22;19.75;;;;;;;15.14;71.26;102242.81;5188157;28;20034;-75
2022/03/10 09:54:52;;;;;;;37.60;19.17;;;;;;;14.70;69.06;102238.38;5204305;28;20393;-75
2022/03/10 09:57:22;;;;;;;39.90;19.88;;;;;;;14.48;74.52;102223.56;5185270;28;20071;-74
2022/03/10 09:59:58;;;;;;;34.92;19.70;;;;;;;14.92;73.74;102236.16;5203783;28;20029;-74
2022/03/10 10:02:29;;;;;;;34.97;18.73;;;;;;;15.31;69.53;102219.41;5203612;28;20033;-75
2022/03/10 10:04:59;;;;;;;33.03;18.25;;;;;;;14.99;70.56;102226.38;5202881;28;20112;-76
2022/03/10 10:07:30;;;;;;;37.22;19.35;;;;;;;15.17;70.43;102229.84;5203843;28;20029;-75
2022/03/10 10:10:00;;;;;;;35.65;18.08;;;;;;;15.24;74.73;102225.47;5202847;28;20013;-74
2022/03/10 10:12:31;;;;;;;37.47;19.38;;;;;;;15.14;75.28;102221.19;5203495;28;20041;-74
2022/03/10 10:15:08;;;;;;;34.80;18.25;;;;;;;15.32;75.25;102221.13;5202904;28;20032;-74
2022/03/10 10:17:39;;;;;;;35.83;18.48;;;;;;;15.18;73.79;102219.88;5203677;28;20033;-74
2022/03/10 10:20:10;;;;;;;34.10;17.85;;;;;;;15.33;70.81;102218.22;5184779;28;20033;-74
2022/03/10 10:22:41;;;;;;;36.75;17.95;;;;;;;15.25;72.68;102208.22;5203583;28;20021;-74
2022/03/10 10:25:11;;;;;;;36.13;17.83;;;;;;;14.76;72.09;102216.13;5189829;28;20495;-74
2022/03/10 10:27:41;;;;;;;34.20;17.83;;;;;;;14.82;76.16;102219.22;5176083;28;20394;-74
2022/03/10 10:30:13;;;;;;;35.10;18.42;;;;;;;14.98;71.79;102203.91;5181730;28;20018;-75
2022/03/10 10:32:43;;;;;;;37.28;17.27;;;;;;;14.86;76.05;102198.94;5181606;28;20046;-75
2022/03/10 10:35:20;;;;;;;35.13;17.25;;;;;;;15.11;76.52;102199.88;5164602;28;20525;-74
2022/03/10 10:37:54;;;;;;;33.45;16.73;;;;;;;14.95;80.59;102197.97;5182824;28;20072;-73
2022/03/10 10:40:27;;;;;;;34.33;16.13;;;;;;;14.94;73.84;102199.00;5182676;28;20504;-74
2022/03/10 10:42:57;;;;;;;36.38;17.55;;;;;;;14.96;77.23;102194.25;5182332;28;20376;-74
2022/03/10 10:45:45;;;;;;;33.40;16.98;;;;;;;15.14;72.90;102194.16;5183072;28;20181;-73
2022/03/10 10:48:15;;;;;;;33.80;17.10;;;;;;;14.74;73.64;102195.69;5182489;28;20033;-73
2022/03/10 10:50:46;;;;;;;30.98;16.63;;;;;;;14.65;75.67;102186.69;5165073;28;20029;-74
2022/03/10 10:53:39;;;;;;;31.65;16.27;;;;;;;14.97;80.91;102196.81;5165475;28;20033;-74
2022/03/10 10:56:15;;;;;;;31.60;16.42;;;;;;;14.57;74.27;102188.50;5181722;28;20106;-74
2022/03/10 10:58:46;;;;;;;31.67;16.25;;;;;;;14.79;76.79;102187.94;5182132;28;20030;-74
2022/03/10 11:01:31;;;;;;;30.10;16.08;;;;;;;14.86;73.83;102182.72;5182146;28;20497;-74
2022/03/10 11:04:04;;;;;;;32.13;16.13;;;;;;;14.74;73.64;102177.63;5164482;28;20097;-74
2022/03/10 11:06:34;;;;;;;35.47;16.40;;;;;;;15.09;76.98;102173.03;5164531;28;20195;-74
2022/03/10 11:09:05;;;;;;;34.47;16.10;;;;;;;14.86;70.81;102166.50;5182213;28;20022;-74
2022/03/10 11:11:37;;;;;;;34.97;15.35;;;;;;;14.62;70.80;102175.38;5182504;28;20022;-73
2022/03/10 11:14:08;;;;;;;31.52;15.30;;;;;;;14.67;69.21;102162.22;5164262;28;20490;-74
2022/03/10 11:16:42;;;;;;;30.38;15.70;;;;;;;14.85;69.75;102162.97;5181625;28;20123;-73
2022/03/10 11:19:13;;;;;;;34.58;15.57;;;;;;;14.77;69.85;102162.97;5181899;28;20049;-74
2022/03/10 11:21:59;;;;;;;32.20;15.15;;;;;;;14.70;68.54;102161.88;5182309;28;20072;-74
2022/03/10 11:25:07;;;;;;;38.58;16.25;;;;;;;14.97;68.95;102152.75;5181309;28;20018;-74
2022/03/10 11:27:51;;;;;;;39.10;16.42;;;;;;;15.26;68.11;102149.59;5174358;28;20029;-74
2022/03/10 11:30:24;;;;;;;33.78;15.90;;;;;;;15.31;69.67;102143.69;5181007;28;20052;-74